Airfield :
LOGIN :

Register | Disclaimer

   EN    FR    IT 

 










Legend :    VFR   Marginal VFR   IFR   Intensive IFR   Very Intensive IFR
Visi :
Ceiling :
>= 8 km
>= 3000ft
5 to 8 km
1000 to 3000 ft
1500m to 5 km
500 to 1000 ft
800 to 1500m
200 to 500 ft
< 800m
< 200 ft
Symbols :   Thunderstorms  Fog  Heavy snow  Heavy precipitations  Wind > 20 kt
SIGMETs :     Misc.  Thunderstorms  Icing  Turbulence  Mountain Waves  Volcanic Ashes






- Airport Elevation : 1345 ft
- IATA code : FRZ


ETHF - Fritzlar

CURRENT METAR :
  • 031420Z 12001KT 9999 VCSH FEW010 SCT070 BKN110 17/13 Q1012 BLU BLU TEMPO WHT

EXPIRED METARs :
  • 031320Z 11004KT 9999 -RA FEW008 SCT020TCU BKN070 17/14 Q1013 RESHRA BLU BLU TEMPO WHT
  • 031303Z 12003KT 8000 -RA SCT020TCU BKN070 16/14 Q1013 RESHRA BLU BLU TEMPO YLO
  • 031237Z 18003KT 6000 SHRA FEW008 BKN020CB BKN027 16/14 Q1013 WHT BLU TEMPO YLO
  • 031236Z 18003KT 6000 -RA FEW008 BKN020 BKN027 17/13 Q1013 WHT BLU TEMPO YLO
  • 031220Z VRB02KT 9999 -RA FEW010 SCT020 BKN027 17/13 Q1013 BLU BLU TEMPO YLO

TAF TAF ETHF
Valid from the 03 at 14:00 until the 03 at 23:00 UTC


031316Z 0314/0323 VRB03KT 9999 NSW SCT010 BKN070
TEMPO 0314/0320 20010G20KT 5000 SHRA SCT007 BKN020CB
PROB30 0321/0323 VRB01KT 0100 FG VV001



MET'MAP, your aeronautical weather chart ! - Copyright ORBIFLY December 2007 - Disclaimer

ORBIFLY MET'MAP TEAM :

Programming & Development : Alexandra Zaïnal
Concept & original design : Baudouin d'Aumeries
Assistance for programming : Marc-Olivier Méhu
Technical & hardware support : Manuel Goepfert

Contact : metmap@orbifly.com




SOURCES & CREDITS :

   NOAA